createdAt,value
2024-04-24T00:02:22.954Z,34.25
2024-04-24T00:04:55.121Z,34.25
2024-04-24T00:07:27.658Z,34.38
2024-04-24T00:10:01.055Z,34.41
2024-04-24T00:12:33.912Z,34.49
2024-04-24T00:15:06.546Z,34.52
2024-04-24T00:17:39.789Z,34.61
2024-04-24T00:20:12.157Z,34.65
2024-04-24T00:22:44.700Z,34.69
2024-04-24T00:25:17.260Z,34.81
2024-04-24T00:28:00.792Z,34.84
2024-04-24T00:30:33.146Z,34.88
2024-04-24T00:33:06.044Z,35.01
2024-04-24T00:35:39.100Z,35.05
2024-04-24T00:38:11.050Z,35.08
2024-04-24T00:40:43.600Z,35.15
2024-04-24T00:43:15.816Z,35.26
2024-04-24T00:45:48.883Z,35.37
2024-04-24T00:48:21.667Z,35.43
2024-04-24T00:50:54.004Z,35.52
2024-04-24T00:53:26.335Z,35.50
2024-04-24T00:55:59.590Z,35.57
2024-04-24T00:58:31.796Z,35.65
2024-04-24T01:01:04.350Z,35.69
2024-04-24T01:03:36.752Z,35.57
2024-04-24T01:06:09.319Z,35.55
2024-04-24T01:08:41.606Z,35.53
2024-04-24T01:11:15.275Z,35.50
2024-04-24T01:13:55.749Z,35.55
2024-04-24T01:16:33.517Z,35.60
2024-04-24T01:19:09.726Z,35.69
2024-04-24T01:22:11.870Z,35.66
2024-04-24T01:24:50.110Z,35.62
2024-04-24T01:27:25.105Z,35.58
2024-04-24T01:29:57.749Z,35.66
2024-04-24T01:32:30.440Z,35.69
2024-04-24T01:35:03.412Z,35.79
2024-04-24T01:37:37.282Z,35.87
2024-04-24T01:40:12.540Z,35.82
2024-04-24T01:42:45.026Z,35.80
2024-04-24T01:45:18.459Z,35.75
2024-04-24T01:47:52.619Z,35.80
2024-04-24T01:50:28.145Z,35.86
2024-04-24T01:53:01.244Z,35.78
2024-04-24T01:55:37.247Z,35.78
2024-04-24T01:58:10.690Z,35.78
2024-04-24T02:00:44.347Z,35.79
2024-04-24T02:03:19.712Z,35.73
2024-04-24T02:05:52.289Z,35.84
2024-04-24T02:08:26.081Z,35.93
2024-04-24T02:10:59.285Z,35.90
2024-04-24T02:13:33.924Z,36.03
2024-04-24T02:16:07.567Z,36.10
2024-04-24T02:18:40.576Z,36.18
2024-04-24T02:21:16.456Z,36.25
2024-04-24T02:23:50.449Z,36.29
2024-04-24T02:26:24.887Z,36.23
2024-04-24T02:28:59.500Z,36.20
2024-04-24T02:31:36.919Z,36.19
2024-04-24T02:34:10.052Z,36.26
2024-04-24T02:36:43.675Z,36.24
2024-04-24T02:39:16.660Z,36.27
2024-04-24T02:41:49.732Z,36.42
2024-04-24T02:44:22.631Z,36.52
2024-04-24T02:46:55.662Z,36.54
2024-04-24T02:49:31.714Z,36.59
2024-04-24T02:52:04.435Z,36.69
2024-04-24T02:54:38.594Z,36.78
2024-04-24T02:57:11.714Z,36.78
2024-04-24T02:59:44.644Z,36.78
2024-04-24T03:02:18.143Z,36.72
2024-04-24T03:04:52.805Z,36.69
2024-04-24T03:07:34.672Z,36.77
2024-04-24T03:10:07.836Z,36.88
2024-04-24T03:12:40.422Z,36.86
2024-04-24T03:15:14.029Z,36.79
2024-04-24T03:17:50.693Z,36.89
2024-04-24T03:20:26.212Z,36.99
2024-04-24T03:22:59.218Z,36.94
2024-04-24T03:25:37.730Z,36.97
2024-04-24T03:28:15.868Z,37.00
2024-04-24T03:30:49.558Z,37.06
2024-04-24T03:33:25.966Z,37.12
2024-04-24T03:35:59.348Z,37.22
2024-04-24T03:38:32.244Z,37.24
2024-04-24T03:41:07.210Z,37.39
2024-04-24T03:43:41.837Z,37.45
2024-04-24T03:46:16.585Z,37.55
2024-04-24T03:48:52.470Z,37.61
2024-04-24T03:51:26.970Z,37.67
2024-04-24T03:53:59.556Z,37.71
2024-04-24T03:56:35.752Z,37.71
2024-04-24T03:59:08.354Z,37.79
2024-04-24T04:01:44.683Z,37.81
2024-04-24T04:04:20.564Z,37.80
2024-04-24T04:06:53.858Z,37.83
2024-04-24T04:09:26.559Z,37.96
2024-04-24T04:12:01.209Z,38.01
2024-04-24T04:14:35.375Z,38.13
2024-04-24T04:17:08.466Z,38.21
2024-04-24T04:19:45.565Z,38.27
2024-04-24T04:22:20.102Z,38.34
2024-04-24T04:24:58.796Z,38.42
2024-04-24T04:27:35.924Z,38.47
2024-04-24T04:30:11.917Z,38.60
2024-04-24T04:32:45.232Z,38.61
2024-04-24T04:35:18.958Z,38.70
2024-04-24T04:37:51.934Z,38.76
2024-04-24T04:40:27.861Z,38.82
2024-04-24T04:43:04.448Z,38.85
2024-04-24T04:45:41.103Z,38.89
2024-04-24T04:48:18.351Z,38.86
2024-04-24T04:50:51.101Z,38.91
2024-04-24T04:53:23.829Z,39.03
2024-04-24T04:56:02.617Z,39.03
2024-04-24T04:58:35.297Z,39.17
2024-04-24T05:01:09.135Z,39.18
2024-04-24T05:03:44.116Z,39.10
2024-04-24T05:06:18.295Z,39.21
2024-04-24T05:08:54.566Z,39.22
2024-04-24T05:11:28.045Z,39.22
2024-04-24T05:14:00.885Z,39.17
2024-04-24T05:16:33.642Z,39.22
2024-04-24T05:19:06.928Z,39.21
2024-04-24T05:21:40.282Z,39.13
2024-04-24T05:24:13.702Z,39.04
2024-04-24T05:27:05.948Z,39.15
2024-04-24T05:29:41.213Z,39.19
2024-04-24T05:32:19.044Z,39.31
2024-04-24T05:34:55.762Z,39.41
2024-04-24T05:37:30.433Z,39.30
2024-04-24T05:40:03.755Z,39.25
2024-04-24T05:42:39.959Z,39.38
2024-04-24T05:45:13.156Z,39.45
2024-04-24T05:47:49.181Z,39.36
2024-04-24T05:50:22.742Z,39.45
2024-04-24T05:52:56.051Z,39.47
2024-04-24T05:55:32.824Z,39.48
2024-04-24T05:58:09.510Z,39.46
2024-04-24T06:00:42.825Z,39.49
2024-04-24T06:03:15.903Z,39.47
2024-04-24T06:05:49.471Z,39.54
2024-04-24T06:08:24.863Z,39.58
2024-04-24T06:11:00.174Z,39.64
2024-04-24T06:13:33.781Z,39.77
2024-04-24T06:16:08.928Z,39.83
2024-04-24T06:18:42.466Z,39.90
2024-04-24T06:21:16.020Z,40.04
2024-04-24T06:23:49.962Z,40.07
2024-04-24T06:26:27.719Z,40.11
2024-04-24T06:29:02.262Z,40.18
2024-04-24T06:31:35.667Z,40.30
2024-04-24T06:34:13.375Z,40.31
2024-04-24T06:36:49.672Z,40.39
2024-04-24T06:39:26.421Z,40.49
2024-04-24T06:42:05.346Z,40.55
2024-04-24T06:44:38.916Z,40.69
2024-04-24T06:47:13.585Z,40.48
2024-04-24T06:49:50.278Z,40.59
2024-04-24T06:52:24.113Z,40.62
2024-04-24T06:54:57.329Z,40.69
2024-04-24T06:57:34.036Z,40.62
2024-04-24T07:00:07.284Z,40.70
2024-04-24T07:02:43.341Z,40.55
2024-04-24T07:05:16.892Z,40.59
2024-04-24T07:07:51.459Z,40.34
2024-04-24T07:10:25.070Z,40.08
2024-04-24T07:12:58.615Z,39.88
2024-04-24T07:15:31.583Z,39.73
2024-04-24T07:18:04.473Z,39.54
2024-04-24T07:20:38.008Z,39.55
2024-04-24T07:23:16.486Z,39.47
2024-04-24T07:25:49.670Z,39.48
2024-04-24T07:28:22.764Z,39.47
2024-04-24T07:30:56.740Z,39.45
2024-04-24T07:33:34.456Z,39.58
2024-04-24T07:36:08.723Z,39.59
2024-04-24T07:38:42.141Z,39.50
2024-04-24T07:41:19.021Z,39.38
2024-04-24T07:43:51.801Z,39.24
2024-04-24T07:46:30.638Z,39.13
2024-04-24T07:49:06.402Z,39.12
2024-04-24T07:51:42.507Z,39.03
2024-04-24T07:54:15.953Z,39.01
2024-04-24T07:56:52.372Z,38.96
2024-04-24T07:59:25.428Z,38.94
2024-04-24T08:02:00.642Z,38.91
2024-04-24T08:04:33.628Z,38.86
2024-04-24T08:07:06.392Z,38.86
2024-04-24T08:09:40.049Z,38.79
2024-04-24T08:12:13.453Z,38.68
2024-04-24T08:14:46.169Z,38.64
2024-04-24T08:17:19.991Z,38.64
2024-04-24T08:19:56.626Z,38.54
2024-04-24T08:22:29.330Z,38.58
2024-04-24T08:25:01.816Z,38.55
2024-04-24T08:27:35.035Z,38.54
2024-04-24T08:30:09.222Z,38.46
2024-04-24T08:32:47.848Z,38.45
2024-04-24T08:35:23.962Z,38.43
2024-04-24T08:37:56.885Z,38.41
2024-04-24T08:40:30.138Z,38.50
2024-04-24T08:43:03.753Z,38.41
2024-04-24T08:45:36.632Z,38.42
2024-04-24T08:48:13.053Z,38.45
2024-04-24T08:50:52.670Z,38.37
2024-04-24T08:53:29.094Z,38.36
2024-04-24T08:56:08.660Z,38.36
2024-04-24T08:58:42.822Z,38.33
2024-04-24T09:01:17.965Z,38.35
2024-04-24T09:03:57.246Z,38.27
2024-04-24T09:06:32.683Z,38.28
2024-04-24T09:09:06.563Z,38.33
2024-04-24T09:11:40.148Z,38.32
2024-04-24T09:14:16.643Z,38.33
2024-04-24T09:16:54.819Z,38.32
2024-04-24T09:19:27.726Z,38.28
2024-04-24T09:22:01.697Z,38.27
2024-04-24T09:24:39.084Z,38.31
2024-04-24T09:27:12.412Z,38.34
2024-04-24T09:29:46.214Z,38.34
2024-04-24T09:32:19.661Z,38.30
2024-04-24T09:34:56.588Z,38.22
2024-04-24T09:37:29.801Z,38.23
2024-04-24T09:40:03.200Z,38.25
2024-04-24T09:42:39.495Z,38.20
2024-04-24T09:45:13.323Z,38.23
2024-04-24T09:47:47.923Z,38.21
2024-04-24T09:50:24.894Z,38.19
2024-04-24T09:52:58.050Z,38.16
2024-04-24T09:55:33.906Z,38.20
2024-04-24T09:58:09.228Z,38.13
2024-04-24T10:00:55.418Z,38.11
2024-04-24T10:03:43.180Z,38.09
2024-04-24T10:06:27.938Z,38.07
2024-04-24T10:09:03.451Z,38.06
2024-04-24T10:11:40.216Z,37.96
2024-04-24T10:14:14.160Z,37.93
2024-04-24T10:16:51.676Z,37.89
2024-04-24T10:19:25.601Z,37.84
2024-04-24T10:22:00.395Z,37.84
2024-04-24T10:24:38.160Z,37.76
2024-04-24T10:27:17.495Z,37.73
2024-04-24T10:29:51.712Z,37.65
2024-04-24T10:32:25.569Z,37.67
2024-04-24T10:34:59.860Z,37.64
2024-04-24T10:37:32.723Z,37.61
2024-04-24T10:40:10.656Z,37.59
2024-04-24T10:42:44.624Z,37.58
2024-04-24T10:45:20.463Z,37.57
2024-04-24T10:47:56.569Z,37.51
2024-04-24T10:50:32.650Z,37.49
2024-04-24T10:53:06.720Z,37.51
2024-04-24T10:55:39.870Z,37.46
2024-04-24T10:58:29.481Z,37.45
2024-04-24T11:01:13.915Z,37.39
2024-04-24T11:03:47.901Z,37.31
2024-04-24T11:06:22.385Z,37.29
2024-04-24T11:08:56.310Z,37.27
2024-04-24T11:11:33.284Z,37.26
2024-04-24T11:14:13.571Z,37.25
2024-04-24T11:17:08.644Z,37.27
2024-04-24T11:19:41.844Z,37.26
2024-04-24T11:22:14.978Z,37.22
2024-04-24T11:24:58.226Z,37.18
2024-04-24T11:27:33.474Z,37.19
2024-04-24T11:30:17.778Z,37.25
2024-04-24T11:33:00.752Z,37.17
2024-04-24T11:35:37.090Z,37.12
2024-04-24T11:38:15.137Z,37.11
2024-04-24T11:40:48.174Z,37.13
2024-04-24T11:43:23.621Z,37.11
2024-04-24T11:45:59.591Z,37.12
2024-04-24T11:48:40.413Z,37.09
2024-04-24T11:51:18.377Z,37.09
2024-04-24T11:53:55.433Z,37.11
2024-04-24T11:56:30.794Z,37.12
2024-04-24T11:59:12.233Z,37.07
2024-04-24T12:01:47.043Z,37.00
2024-04-24T12:04:21.617Z,36.88
2024-04-24T12:06:56.477Z,36.90
2024-04-24T12:09:30.752Z,36.87
2024-04-24T12:12:08.227Z,36.86
2024-04-24T12:14:44.182Z,36.86
2024-04-24T12:17:24.148Z,36.80
2024-04-24T12:19:58.708Z,36.89
2024-04-24T12:22:31.877Z,36.89
2024-04-24T12:25:05.304Z,36.87
2024-04-24T12:27:41.348Z,36.90
2024-04-24T12:30:17.735Z,36.88
2024-04-24T12:32:56.458Z,36.86
2024-04-24T12:35:38.073Z,36.85
2024-04-24T12:38:14.936Z,36.81
2024-04-24T12:40:59.389Z,36.81
2024-04-24T12:43:35.611Z,36.79
2024-04-24T12:46:10.589Z,36.76
2024-04-24T12:48:47.631Z,36.74
2024-04-24T12:51:26.188Z,36.73
2024-04-24T12:54:22.809Z,36.71
2024-04-24T12:56:59.705Z,36.61
2024-04-24T12:59:37.821Z,36.55
2024-04-24T13:02:21.618Z,36.54
2024-04-24T13:04:58.691Z,36.50
2024-04-24T13:07:35.816Z,36.49
2024-04-24T13:10:15.568Z,36.51
2024-04-24T13:12:55.694Z,36.47
2024-04-24T13:15:36.213Z,36.49
2024-04-24T13:18:10.358Z,36.43
2024-04-24T13:20:45.009Z,36.45
2024-04-24T13:23:19.128Z,36.38
2024-04-24T13:25:52.367Z,36.40
2024-04-24T13:28:26.095Z,36.38
2024-04-24T13:31:06.457Z,36.35
2024-04-24T13:33:49.918Z,36.32
2024-04-24T13:36:25.096Z,36.29
2024-04-24T13:38:59.331Z,36.29
2024-04-24T13:41:37.366Z,36.28
2024-04-24T13:44:23.275Z,36.32
2024-04-24T13:47:03.041Z,36.32
2024-04-24T13:49:40.588Z,36.29
2024-04-24T13:52:18.693Z,36.27
2024-04-24T13:54:55.894Z,36.20
2024-04-24T13:57:34.176Z,36.24
2024-04-24T14:00:14.539Z,36.25
2024-04-24T14:02:49.745Z,36.21
2024-04-24T14:05:28.261Z,36.19
2024-04-24T14:08:02.375Z,36.19
2024-04-24T14:10:41.025Z,36.14
2024-04-24T14:13:19.142Z,35.96
2024-04-24T14:15:57.534Z,35.93
2024-04-24T14:18:34.571Z,35.87
2024-04-24T14:21:10.875Z,35.86
2024-04-24T14:23:56.807Z,35.86
2024-04-24T14:26:32.381Z,35.81
2024-04-24T14:29:08.020Z,35.78
2024-04-24T14:31:46.636Z,35.81
2024-04-24T14:34:23.669Z,35.80
2024-04-24T14:37:04.164Z,35.80
2024-04-24T14:39:40.171Z,35.78
2024-04-24T14:42:22.743Z,35.76
2024-04-24T14:45:02.216Z,35.74
2024-04-24T14:47:37.723Z,35.77
2024-04-24T14:50:13.644Z,35.71
2024-04-24T14:52:52.397Z,35.70
2024-04-24T14:55:33.051Z,35.70
2024-04-24T14:58:18.237Z,35.67
2024-04-24T15:00:57.662Z,35.69
2024-04-24T15:03:58.874Z,35.67
2024-04-24T15:06:39.853Z,35.63
2024-04-24T15:09:16.918Z,35.60
2024-04-24T15:12:00.112Z,35.61
2024-04-24T15:14:38.225Z,35.62
2024-04-24T15:17:21.429Z,35.65
2024-04-24T15:20:03.990Z,35.57
2024-04-24T15:22:42.375Z,35.56
2024-04-24T15:25:31.114Z,35.52
2024-04-24T15:28:07.162Z,35.50
2024-04-24T15:30:41.216Z,35.50
2024-04-24T15:33:25.368Z,35.43
2024-04-24T15:36:11.080Z,35.42
2024-04-24T15:38:46.566Z,35.38
2024-04-24T15:41:24.005Z,35.37
2024-04-24T15:44:07.033Z,35.39
2024-04-24T15:46:41.860Z,35.38
2024-04-24T15:49:22.328Z,35.42
2024-04-24T15:52:02.623Z,35.46
2024-04-24T15:54:36.707Z,35.27
2024-04-24T15:57:13.569Z,35.27
2024-04-24T15:59:48.113Z,35.33
2024-04-24T16:02:30.099Z,35.35
2024-04-24T16:05:05.450Z,35.29
2024-04-24T16:07:39.224Z,35.31
2024-04-24T16:10:22.662Z,35.29
2024-04-24T16:13:01.227Z,35.35
2024-04-24T16:15:37.949Z,35.31
2024-04-24T16:18:14.284Z,35.26
2024-04-24T16:20:52.654Z,35.23
2024-04-24T16:23:30.400Z,35.21
2024-04-24T16:26:04.711Z,35.23
2024-04-24T16:28:38.363Z,35.25
2024-04-24T16:31:14.409Z,35.18
2024-04-24T16:33:49.399Z,35.22
2024-04-24T16:36:25.346Z,35.20
2024-04-24T16:39:04.057Z,35.17
2024-04-24T16:41:43.380Z,35.09
2024-04-24T16:44:25.195Z,35.13
2024-04-24T16:47:02.322Z,35.07
2024-04-24T16:49:38.400Z,35.08
2024-04-24T16:52:17.456Z,35.05
2024-04-24T16:54:50.268Z,35.01
2024-04-24T16:57:23.249Z,34.98
2024-04-24T16:59:58.815Z,34.92
2024-04-24T17:02:31.913Z,34.96
2024-04-24T17:05:05.121Z,35.01
2024-04-24T17:07:37.932Z,35.00
2024-04-24T17:10:15.101Z,34.89
2024-04-24T17:12:50.555Z,34.88
2024-04-24T17:15:25.778Z,35.00
2024-04-24T17:17:58.394Z,34.88
2024-04-24T17:20:34.361Z,34.90
2024-04-24T17:23:07.218Z,34.84
2024-04-24T17:25:40.247Z,34.89
2024-04-24T17:28:12.889Z,34.87
2024-04-24T17:30:45.411Z,34.84
2024-04-24T17:33:17.775Z,34.84
2024-04-24T17:35:56.257Z,34.83
2024-04-24T17:38:33.090Z,34.80
2024-04-24T17:41:07.396Z,34.79
2024-04-24T17:43:39.718Z,34.83
2024-04-24T17:46:12.238Z,34.76
2024-04-24T17:48:44.887Z,34.76
2024-04-24T17:51:17.578Z,34.75
2024-04-24T17:53:50.199Z,34.75
2024-04-24T17:56:25.974Z,34.69
2024-04-24T17:58:58.846Z,34.69
2024-04-24T18:01:31.168Z,34.62
2024-04-24T18:04:03.474Z,34.63
2024-04-24T18:06:38.007Z,34.62
2024-04-24T18:09:10.103Z,34.71
2024-04-24T18:11:42.475Z,34.69
2024-04-24T18:14:15.707Z,34.64
2024-04-24T18:16:48.057Z,34.64
2024-04-24T18:19:20.313Z,34.61
2024-04-24T18:21:52.640Z,34.61
2024-04-24T18:24:26.788Z,34.61
2024-04-24T18:27:00.309Z,34.59
2024-04-24T18:29:32.401Z,34.55
2024-04-24T18:32:07.961Z,34.49
2024-04-24T18:34:40.772Z,34.51
2024-04-24T18:37:12.718Z,34.53
2024-04-24T18:39:44.856Z,34.48
2024-04-24T18:42:16.971Z,34.50
2024-04-24T18:44:49.317Z,34.43
2024-04-24T18:47:23.529Z,34.47
2024-04-24T18:49:56.182Z,34.43
2024-04-24T18:52:28.797Z,34.40
2024-04-24T18:55:00.962Z,34.42
2024-04-24T18:57:34.185Z,34.37
2024-04-24T19:00:12.753Z,34.36
2024-04-24T19:02:44.855Z,34.35
2024-04-24T19:05:18.453Z,34.29
2024-04-24T19:07:50.589Z,34.34
2024-04-24T19:10:23.914Z,34.35
2024-04-24T19:12:56.012Z,34.29
2024-04-24T19:15:28.166Z,34.26
2024-04-24T19:18:00.275Z,34.33
2024-04-24T19:20:34.811Z,34.22
2024-04-24T19:23:07.206Z,34.22
2024-04-24T19:25:39.632Z,34.24
2024-04-24T19:28:12.397Z,34.26
2024-04-24T19:30:44.498Z,34.15
2024-04-24T19:33:16.633Z,34.20
2024-04-24T19:35:53.857Z,34.24
2024-04-24T19:38:25.974Z,34.16
2024-04-24T19:41:00.099Z,34.10
2024-04-24T19:43:35.785Z,34.18
2024-04-24T19:46:11.185Z,34.15
2024-04-24T19:48:43.220Z,34.11
2024-04-24T19:51:19.735Z,34.11
2024-04-24T19:53:51.424Z,34.13
2024-04-24T19:56:23.582Z,34.09
2024-04-24T19:58:55.498Z,34.08
2024-04-24T20:01:30.986Z,34.00
2024-04-24T20:04:03.058Z,34.09
2024-04-24T20:06:37.363Z,34.05
2024-04-24T20:09:11.749Z,34.05
2024-04-24T20:11:43.900Z,34.00
2024-04-24T20:14:16.130Z,33.97
2024-04-24T20:16:49.262Z,33.95
2024-04-24T20:19:23.166Z,34.03
2024-04-24T20:21:57.872Z,33.95
2024-04-24T20:24:32.792Z,33.91
2024-04-24T20:27:04.807Z,33.91
2024-04-24T20:29:37.717Z,33.90
2024-04-24T20:32:10.088Z,33.88
2024-04-24T20:34:42.569Z,33.87
2024-04-24T20:37:14.763Z,33.86
2024-04-24T20:39:50.048Z,33.84
2024-04-24T20:42:22.223Z,33.80
2024-04-24T20:44:59.145Z,33.78
2024-04-24T20:47:31.689Z,33.78
2024-04-24T20:50:06.344Z,33.86
2024-04-24T20:52:39.650Z,33.80
2024-04-24T20:55:14.736Z,33.80
2024-04-24T20:57:46.940Z,33.72
2024-04-24T21:00:19.174Z,33.79
2024-04-24T21:02:52.040Z,33.77
2024-04-24T21:05:30.377Z,33.71
2024-04-24T21:08:03.230Z,33.70
2024-04-24T21:10:35.705Z,33.64
2024-04-24T21:13:07.712Z,33.68
2024-04-24T21:15:39.772Z,33.70
2024-04-24T21:18:12.001Z,33.64
2024-04-24T21:20:44.127Z,33.61
2024-04-24T21:23:18.425Z,33.58
2024-04-24T21:25:51.776Z,33.55
2024-04-24T21:28:31.175Z,33.53
2024-04-24T21:31:07.274Z,33.58
2024-04-24T21:33:39.358Z,33.52
2024-04-24T21:36:11.474Z,33.50
2024-04-24T21:38:43.590Z,33.51
2024-04-24T21:41:22.886Z,33.54
2024-04-24T21:43:55.072Z,33.48
2024-04-24T21:46:27.012Z,33.49
2024-04-24T21:48:59.075Z,33.51
2024-04-24T21:51:31.115Z,33.45
2024-04-24T21:54:05.020Z,33.49
2024-04-24T21:56:38.052Z,33.46
2024-04-24T21:59:11.464Z,33.49
2024-04-24T22:01:43.434Z,33.49
2024-04-24T22:04:15.476Z,33.47
2024-04-24T22:06:47.828Z,33.52
2024-04-24T22:09:20.417Z,33.44
2024-04-24T22:11:52.643Z,33.49
2024-04-24T22:14:28.487Z,33.45
2024-04-24T22:17:03.282Z,33.48
2024-04-24T22:19:39.284Z,33.45
2024-04-24T22:22:11.642Z,33.46
2024-04-24T22:24:43.616Z,33.51
2024-04-24T22:27:15.951Z,33.42
2024-04-24T22:29:48.098Z,33.51
2024-04-24T22:32:20.104Z,33.49
2024-04-24T22:34:52.154Z,33.45
2024-04-24T22:37:25.035Z,33.49
2024-04-24T22:39:57.328Z,33.49
2024-04-24T22:42:29.290Z,33.46
2024-04-24T22:45:01.132Z,33.53
2024-04-24T22:47:33.442Z,33.57
2024-04-24T22:50:05.570Z,33.52
2024-04-24T22:52:37.936Z,33.57
2024-04-24T22:55:10.232Z,33.56
2024-04-24T22:57:42.876Z,33.60
2024-04-24T23:00:19.477Z,33.62
2024-04-24T23:02:51.977Z,33.55
2024-04-24T23:05:24.480Z,33.51
2024-04-24T23:07:56.508Z,33.57
2024-04-24T23:10:29.090Z,33.60
2024-04-24T23:13:01.149Z,33.61
2024-04-24T23:15:33.383Z,33.68
2024-04-24T23:18:07.300Z,33.73
2024-04-24T23:20:39.525Z,33.70
2024-04-24T23:23:14.640Z,33.70
2024-04-24T23:25:46.627Z,33.73
2024-04-24T23:28:19.345Z,33.69
2024-04-24T23:30:52.230Z,33.69
2024-04-24T23:33:24.418Z,33.74
2024-04-24T23:35:56.376Z,33.77
2024-04-24T23:38:28.359Z,33.83
2024-04-24T23:41:01.274Z,33.83
2024-04-24T23:43:33.743Z,33.85
2024-04-24T23:46:05.982Z,33.83
2024-04-24T23:48:39.390Z,33.88
2024-04-24T23:51:14.757Z,34.01
2024-04-24T23:53:50.620Z,33.97
2024-04-24T23:56:24.417Z,34.10
2024-04-24T23:58:59.520Z,34.08
